createdAt,value
2018-09-02T00:00:51.034Z,2.92
2018-09-02T00:03:19.235Z,4.25
2018-09-02T00:05:47.459Z,2.77
2018-09-02T00:08:15.666Z,2.80
2018-09-02T00:10:43.880Z,2.92
2018-09-02T00:13:12.065Z,3.75
2018-09-02T00:15:40.280Z,4.15
2018-09-02T00:18:08.519Z,2.63
2018-09-02T00:20:36.818Z,3.58
2018-09-02T00:23:05.124Z,4.33
2018-09-02T00:25:33.322Z,3.08
2018-09-02T00:28:01.702Z,2.25
2018-09-02T00:30:29.910Z,3.12
2018-09-02T00:32:58.135Z,3.92
2018-09-02T00:35:26.346Z,3.65
2018-09-02T00:37:54.547Z,1.70
2018-09-02T00:40:22.745Z,5.05
2018-09-02T00:42:50.939Z,2.05
2018-09-02T00:45:19.127Z,3.17
2018-09-02T00:47:47.346Z,3.35
2018-09-02T00:50:15.613Z,3.08
2018-09-02T00:52:43.811Z,3.95
2018-09-02T00:55:12.038Z,3.45
2018-09-02T00:57:40.250Z,3.17
2018-09-02T01:00:08.480Z,3.00
2018-09-02T01:02:36.856Z,3.77
2018-09-02T01:05:05.257Z,3.92
2018-09-02T01:07:33.512Z,4.47
2018-09-02T01:10:01.714Z,2.27
2018-09-02T01:12:29.924Z,5.10
2018-09-02T01:14:58.104Z,2.45
2018-09-02T01:17:26.298Z,5.58
2018-09-02T01:19:54.439Z,4.45
2018-09-02T01:22:22.616Z,3.72
2018-09-02T01:24:50.806Z,3.67
2018-09-02T01:27:18.970Z,3.10
2018-09-02T01:29:47.132Z,2.75
2018-09-02T01:32:15.600Z,3.73
2018-09-02T01:34:43.792Z,2.95
2018-09-02T01:37:11.969Z,4.08
2018-09-02T01:39:40.123Z,3.00
2018-09-02T01:42:08.305Z,3.23
2018-09-02T01:44:36.507Z,4.83
2018-09-02T01:47:04.699Z,4.97
2018-09-02T01:49:32.884Z,4.00
2018-09-02T01:52:01.056Z,2.67
2018-09-02T01:54:29.218Z,3.37
2018-09-02T01:56:57.399Z,4.73
2018-09-02T01:59:25.591Z,4.45
2018-09-02T02:01:53.773Z,4.87
2018-09-02T02:04:21.969Z,4.70
2018-09-02T02:06:50.172Z,6.37
2018-09-02T02:09:18.357Z,4.73
2018-09-02T02:11:46.535Z,3.53
2018-09-02T02:14:14.709Z,2.90
2018-09-02T02:16:42.890Z,3.47
2018-09-02T02:19:11.076Z,3.80
2018-09-02T02:21:39.247Z,4.57
2018-09-02T02:24:07.507Z,3.00
2018-09-02T02:26:35.716Z,5.03
2018-09-02T02:29:03.898Z,3.92
2018-09-02T02:31:32.106Z,3.77
2018-09-02T02:34:00.286Z,5.53
2018-09-02T02:36:28.487Z,3.10
2018-09-02T02:38:56.653Z,5.37
2018-09-02T02:41:24.824Z,4.03
2018-09-02T02:43:53.119Z,5.03
2018-09-02T02:46:21.310Z,4.80
2018-09-02T02:48:49.503Z,4.27
2018-09-02T02:51:17.674Z,4.30
2018-09-02T02:53:45.864Z,3.60
2018-09-02T02:56:14.045Z,5.07
2018-09-02T02:58:42.213Z,3.63
2018-09-02T03:01:10.387Z,5.87
2018-09-02T03:03:38.561Z,2.50
2018-09-02T03:06:06.739Z,5.70
2018-09-02T03:08:34.907Z,2.90
2018-09-02T03:11:03.098Z,3.13
2018-09-02T03:13:31.268Z,4.03
2018-09-02T03:15:59.451Z,3.33
2018-09-02T03:18:27.623Z,3.83
2018-09-02T03:20:55.811Z,3.47
2018-09-02T03:23:23.969Z,3.03
2018-09-02T03:25:52.155Z,3.70
2018-09-02T03:28:20.325Z,3.20
2018-09-02T03:30:48.493Z,4.80
2018-09-02T03:33:16.662Z,3.77
2018-09-02T03:35:44.835Z,3.57
2018-09-02T03:38:13.014Z,5.90
2018-09-02T03:40:41.207Z,5.20
2018-09-02T03:43:09.387Z,3.33
2018-09-02T03:45:37.550Z,3.97
2018-09-02T03:48:05.786Z,6.67
2018-09-02T03:50:33.948Z,2.33
2018-09-02T03:53:02.145Z,3.27
2018-09-02T03:55:30.324Z,4.43
2018-09-02T03:57:58.499Z,3.20
2018-09-02T04:00:26.696Z,3.23
2018-09-02T04:02:54.880Z,4.13
2018-09-02T04:05:23.045Z,2.20
2018-09-02T04:07:51.215Z,3.87
2018-09-02T04:10:19.515Z,3.03
2018-09-02T04:12:47.675Z,2.87
2018-09-02T04:15:15.929Z,3.03
2018-09-02T04:17:44.086Z,4.40
2018-09-02T04:20:12.354Z,4.73
2018-09-02T04:22:40.537Z,4.47
2018-09-02T04:25:08.703Z,6.40
2018-09-02T04:27:36.869Z,3.17
2018-09-02T04:30:05.043Z,4.73
2018-09-02T04:32:33.212Z,6.50
2018-09-02T04:35:01.411Z,4.25
2018-09-02T04:37:29.591Z,4.63
2018-09-02T04:39:57.754Z,4.57
2018-09-02T04:42:25.923Z,5.08
2018-09-02T04:44:54.102Z,3.67
2018-09-02T04:47:22.274Z,4.40
2018-09-02T04:49:50.426Z,3.98
2018-09-02T04:52:18.628Z,3.10
2018-09-02T04:54:46.805Z,3.17
2018-09-02T04:57:14.991Z,2.30
2018-09-02T04:59:43.177Z,3.37
2018-09-02T05:02:11.411Z,4.13
2018-09-02T05:04:39.571Z,2.60
2018-09-02T05:07:07.749Z,4.00
2018-09-02T05:09:35.920Z,3.23
2018-09-02T05:12:04.093Z,3.58
2018-09-02T05:14:32.271Z,3.33
2018-09-02T05:17:00.446Z,4.87
2018-09-02T05:19:28.608Z,4.80
2018-09-02T05:21:56.796Z,3.90
2018-09-02T05:24:24.975Z,3.87
2018-09-02T05:26:53.156Z,5.83
2018-09-02T05:29:21.327Z,4.33
2018-09-02T05:31:49.507Z,4.80
2018-09-02T05:34:17.687Z,7.77
2018-09-02T05:36:45.872Z,2.80
2018-09-02T05:39:14.059Z,4.70
2018-09-02T05:41:42.242Z,4.30
2018-09-02T05:44:10.956Z,5.62
2018-09-02T05:46:39.131Z,2.60
2018-09-02T05:49:07.303Z,4.27
2018-09-02T05:51:35.503Z,6.42
2018-09-02T05:54:03.698Z,3.03
2018-09-02T05:56:31.864Z,3.77
2018-09-02T05:59:00.055Z,5.70
2018-09-02T06:01:28.225Z,5.37
2018-09-02T06:03:56.418Z,3.07
2018-09-02T06:06:24.592Z,6.00
2018-09-02T06:08:52.760Z,4.57
2018-09-02T06:11:20.947Z,4.20
2018-09-02T06:13:49.115Z,5.03
2018-09-02T06:16:17.280Z,4.27
2018-09-02T06:18:45.459Z,5.53
2018-09-02T06:21:13.622Z,4.20
2018-09-02T06:23:41.816Z,5.27
2018-09-02T06:26:09.984Z,3.02
2018-09-02T06:28:38.189Z,4.23
2018-09-02T06:31:06.442Z,3.60
2018-09-02T06:33:34.636Z,4.25
2018-09-02T06:36:02.813Z,4.10
2018-09-02T06:38:31.104Z,3.52
2018-09-02T06:40:59.284Z,4.30
2018-09-02T06:43:27.478Z,3.22
2018-09-02T06:45:55.676Z,4.00
2018-09-02T06:48:23.883Z,5.92
2018-09-02T06:50:52.072Z,6.13
2018-09-02T06:53:20.250Z,5.10
2018-09-02T06:55:48.429Z,4.65
2018-09-02T06:58:16.611Z,6.35
2018-09-02T07:00:44.795Z,3.65
2018-09-02T07:03:12.974Z,3.75
2018-09-02T07:05:42.170Z,3.98
2018-09-02T07:08:11.688Z,5.75
2018-09-02T07:10:40.576Z,2.95
2018-09-02T07:13:08.743Z,3.85
2018-09-02T07:15:36.958Z,4.67
2018-09-02T07:18:05.119Z,4.80
2018-09-02T07:20:33.878Z,5.00
2018-09-02T07:23:02.146Z,3.30
2018-09-02T07:25:30.397Z,5.20
2018-09-02T07:27:58.568Z,5.53
2018-09-02T07:30:26.872Z,4.87
2018-09-02T07:32:55.050Z,4.37
2018-09-02T07:35:23.332Z,4.90
2018-09-02T07:37:51.514Z,3.92
2018-09-02T07:40:19.703Z,4.50
2018-09-02T07:42:47.895Z,3.20
2018-09-02T07:45:16.842Z,5.55
2018-09-02T07:47:45.007Z,4.15
2018-09-02T07:50:13.199Z,4.97
2018-09-02T07:52:41.375Z,4.58
2018-09-02T07:55:09.657Z,5.05
2018-09-02T07:57:37.857Z,6.80
2018-09-02T08:00:07.708Z,5.05
2018-09-02T08:02:35.890Z,2.80
2018-09-02T08:05:04.071Z,4.25
2018-09-02T08:07:32.253Z,10.70
2018-09-02T08:10:00.425Z,7.00
2018-09-02T08:12:28.622Z,9.10
2018-09-02T08:14:56.807Z,3.87
2018-09-02T08:17:24.968Z,5.87
2018-09-02T08:19:53.211Z,3.52
2018-09-02T08:22:21.327Z,4.85
2018-09-02T08:24:49.494Z,6.83
2018-09-02T08:27:17.673Z,5.75
2018-09-02T08:29:45.829Z,4.25
2018-09-02T08:32:14.027Z,6.62
2018-09-02T08:34:42.208Z,5.85
2018-09-02T08:37:10.389Z,4.97
2018-09-02T08:39:38.553Z,6.15
2018-09-02T08:42:06.719Z,6.58
2018-09-02T08:44:34.903Z,4.97
2018-09-02T08:47:03.463Z,3.90
2018-09-02T08:49:31.641Z,5.50
2018-09-02T08:51:59.847Z,6.05
2018-09-02T08:54:28.039Z,5.20
2018-09-02T08:56:56.224Z,2.80
2018-09-02T08:59:24.413Z,4.47
2018-09-02T09:01:52.581Z,5.20
2018-09-02T09:04:20.779Z,5.80
2018-09-02T09:06:48.951Z,4.12
2018-09-02T09:09:17.358Z,4.78
2018-09-02T09:11:45.332Z,5.47
2018-09-02T09:14:13.648Z,5.10
2018-09-02T09:16:41.757Z,8.08
2018-09-02T09:19:09.872Z,5.92
2018-09-02T09:21:38.140Z,5.72
2018-09-02T09:24:06.429Z,4.70
2018-09-02T09:26:34.557Z,4.22
2018-09-02T09:29:02.735Z,4.37
2018-09-02T09:31:30.917Z,4.12
2018-09-02T09:33:59.326Z,5.10
2018-09-02T09:36:27.741Z,3.45
2018-09-02T09:38:55.920Z,6.72
2018-09-02T09:41:24.116Z,4.67
2018-09-02T09:43:52.285Z,6.30
2018-09-02T09:46:20.482Z,3.92
2018-09-02T09:48:48.671Z,5.35
2018-09-02T09:51:16.880Z,4.60
2018-09-02T09:53:45.073Z,4.78
2018-09-02T09:56:13.243Z,5.92
2018-09-02T09:58:41.423Z,4.83
2018-09-02T10:01:09.604Z,7.25
2018-09-02T10:03:37.821Z,6.15
2018-09-02T10:06:06.044Z,5.42
2018-09-02T10:08:34.215Z,5.22
2018-09-02T10:11:02.387Z,6.15
2018-09-02T10:13:30.587Z,4.45
2018-09-02T10:15:58.753Z,4.42
2018-09-02T10:18:26.939Z,3.98
2018-09-02T10:20:55.118Z,4.12
2018-09-02T10:23:23.341Z,7.20
2018-09-02T10:25:51.530Z,7.47
2018-09-02T10:28:19.758Z,8.63
2018-09-02T10:30:47.919Z,4.42
2018-09-02T10:33:16.128Z,4.90
2018-09-02T10:35:44.300Z,4.05
2018-09-02T10:38:12.478Z,5.97
2018-09-02T10:40:40.683Z,4.90
2018-09-02T10:43:08.866Z,5.85
2018-09-02T10:45:37.063Z,4.25
2018-09-02T10:48:05.575Z,4.60
2018-09-02T10:50:33.859Z,5.83
2018-09-02T10:53:02.042Z,4.62
2018-09-02T10:55:30.296Z,4.55
2018-09-02T10:57:58.499Z,4.60
2018-09-02T11:00:26.696Z,5.92
2018-09-02T11:02:54.890Z,5.30
2018-09-02T11:05:23.068Z,4.37
2018-09-02T11:07:51.376Z,3.80
2018-09-02T11:10:20.392Z,5.58
2018-09-02T11:12:48.585Z,4.42
2018-09-02T11:15:16.780Z,5.10
2018-09-02T11:17:44.955Z,5.47
2018-09-02T11:20:13.198Z,4.05
2018-09-02T11:22:41.364Z,4.92
2018-09-02T11:25:09.562Z,5.40
2018-09-02T11:27:37.724Z,5.97
2018-09-02T11:30:06.767Z,3.50
2018-09-02T11:32:35.010Z,3.83
2018-09-02T11:35:03.271Z,4.58
2018-09-02T11:37:31.453Z,5.55
2018-09-02T11:39:59.659Z,4.67
2018-09-02T11:42:27.891Z,3.87
2018-09-02T11:44:56.076Z,4.33
2018-09-02T11:47:24.235Z,4.83
2018-09-02T11:49:52.472Z,6.55
2018-09-02T11:52:20.661Z,6.83
2018-09-02T11:54:48.853Z,4.37
2018-09-02T11:57:17.033Z,4.80
2018-09-02T11:59:45.302Z,4.05
2018-09-02T12:02:13.453Z,6.70
2018-09-02T12:04:41.752Z,5.15
2018-09-02T12:07:09.919Z,5.20
2018-09-02T12:09:38.105Z,5.60
2018-09-02T12:12:06.277Z,3.98
2018-09-02T12:14:34.577Z,5.17
2018-09-02T12:17:02.708Z,5.45
2018-09-02T12:19:30.929Z,4.62
2018-09-02T12:21:59.103Z,7.00
2018-09-02T12:24:27.290Z,6.35
2018-09-02T12:26:55.461Z,6.17
2018-09-02T12:29:23.644Z,6.08
2018-09-02T12:31:51.806Z,5.70
2018-09-02T12:34:19.977Z,5.45
2018-09-02T12:36:48.173Z,5.85
2018-09-02T12:39:16.343Z,7.03
2018-09-02T12:41:44.541Z,8.65
2018-09-02T12:44:12.707Z,5.40
2018-09-02T12:46:40.917Z,4.83
2018-09-02T12:49:09.096Z,5.92
2018-09-02T12:51:37.409Z,5.53
2018-09-02T12:54:05.592Z,5.75
2018-09-02T12:56:33.772Z,5.35
2018-09-02T12:59:02.005Z,6.90
2018-09-02T13:01:30.201Z,5.70
2018-09-02T13:03:58.394Z,5.12
2018-09-02T13:06:26.613Z,5.35
2018-09-02T13:08:54.784Z,5.42
2018-09-02T13:11:22.978Z,6.22
2018-09-02T13:13:51.154Z,5.87
2018-09-02T13:16:19.345Z,5.80
2018-09-02T13:18:47.509Z,6.78
2018-09-02T13:21:15.737Z,6.80
2018-09-02T13:23:43.932Z,5.72
2018-09-02T13:26:12.100Z,5.92
2018-09-02T13:28:40.271Z,6.55
2018-09-02T13:31:08.683Z,6.22
2018-09-02T13:33:36.915Z,5.72
2018-09-02T13:36:05.083Z,5.60
2018-09-02T13:38:33.823Z,5.05
2018-09-02T13:41:02.031Z,5.20
2018-09-02T13:43:30.215Z,5.42
2018-09-02T13:45:58.384Z,7.70
2018-09-02T13:48:26.676Z,5.17
2018-09-02T13:50:54.824Z,5.22
2018-09-02T13:53:22.958Z,4.62
2018-09-02T13:55:57.986Z,5.03
2018-09-02T13:58:26.170Z,5.75
2018-09-02T14:00:54.420Z,6.05
2018-09-02T14:03:22.636Z,5.08
2018-09-02T14:05:50.812Z,4.47
2018-09-02T14:08:19.009Z,5.42
2018-09-02T14:10:47.170Z,6.17
2018-09-02T14:13:15.336Z,5.12
2018-09-02T14:15:43.513Z,5.55
2018-09-02T14:18:11.709Z,5.55
2018-09-02T14:20:39.899Z,5.25
2018-09-02T14:23:08.155Z,5.33
2018-09-02T14:25:36.336Z,4.70
2018-09-02T14:28:04.516Z,4.53
2018-09-02T14:30:32.670Z,4.90
2018-09-02T14:33:00.857Z,5.10
2018-09-02T14:35:29.056Z,5.05
2018-09-02T14:37:57.236Z,4.72
2018-09-02T14:40:25.402Z,5.35
2018-09-02T14:42:53.599Z,5.67
2018-09-02T14:45:21.816Z,4.40
2018-09-02T14:47:50.041Z,5.78
2018-09-02T14:50:18.212Z,4.70
2018-09-02T14:52:46.390Z,5.00
2018-09-02T14:55:14.586Z,4.67
2018-09-02T14:57:42.773Z,5.17
2018-09-02T15:00:10.964Z,4.58
2018-09-02T15:02:39.155Z,4.92
2018-09-02T15:05:07.779Z,5.28
2018-09-02T15:07:36.007Z,4.70
2018-09-02T15:10:04.207Z,4.87
2018-09-02T15:12:32.352Z,5.83
2018-09-02T15:15:00.577Z,5.70
2018-09-02T15:17:28.930Z,5.20
2018-09-02T15:19:57.120Z,6.10
2018-09-02T15:22:25.339Z,5.20
2018-09-02T15:24:53.512Z,5.45
2018-09-02T15:27:21.789Z,5.40
2018-09-02T15:29:49.915Z,5.55
2018-09-02T15:32:18.182Z,5.55
2018-09-02T15:34:46.369Z,5.35
2018-09-02T15:37:14.558Z,4.60
2018-09-02T15:39:42.897Z,4.55
2018-09-02T15:42:11.073Z,4.85
2018-09-02T15:44:39.314Z,4.70
2018-09-02T15:47:07.486Z,5.00
2018-09-02T15:49:36.376Z,5.47
2018-09-02T15:52:04.618Z,5.35
2018-09-02T15:54:32.838Z,5.25
2018-09-02T15:57:01.044Z,6.00
2018-09-02T15:59:29.223Z,5.92
2018-09-02T16:01:57.390Z,6.15
2018-09-02T16:04:25.555Z,6.92
2018-09-02T16:06:53.803Z,6.25
2018-09-02T16:09:21.983Z,7.33
2018-09-02T16:11:50.174Z,5.42
2018-09-02T16:14:18.386Z,6.78
2018-09-02T16:16:46.563Z,7.33
2018-09-02T16:19:14.733Z,7.20
2018-09-02T16:21:43.070Z,7.30
2018-09-02T16:24:11.246Z,6.12
2018-09-02T16:26:39.449Z,7.65
2018-09-02T16:29:07.676Z,6.55
2018-09-02T16:31:35.850Z,6.90
2018-09-02T16:34:04.096Z,8.05
2018-09-02T16:36:33.331Z,8.08
2018-09-02T16:39:01.537Z,6.40
2018-09-02T16:41:29.834Z,6.62
2018-09-02T16:43:57.932Z,6.67
2018-09-02T16:46:26.156Z,6.35
2018-09-02T16:48:54.404Z,8.00
2018-09-02T16:51:22.622Z,7.47
2018-09-02T16:53:50.800Z,5.80
2018-09-02T16:56:18.983Z,6.62
2018-09-02T16:58:47.172Z,6.20
2018-09-02T17:01:15.353Z,6.28
2018-09-02T17:03:46.821Z,7.17
2018-09-02T17:06:15.081Z,5.05
2018-09-02T17:08:43.270Z,5.33
2018-09-02T17:13:46.064Z,6.12
2018-09-02T17:16:14.255Z,6.22
2018-09-02T17:18:42.452Z,5.70
2018-09-02T17:21:10.627Z,5.25
2018-09-02T17:23:38.807Z,5.83
2018-09-02T17:26:07.313Z,5.22
2018-09-02T17:28:35.517Z,6.17
2018-09-02T17:31:03.699Z,5.05
2018-09-02T17:33:31.896Z,6.42
2018-09-02T17:36:00.060Z,4.90
2018-09-02T17:38:28.228Z,5.80
2018-09-02T17:40:56.391Z,5.47
2018-09-02T17:43:24.569Z,5.70
2018-09-02T17:45:52.847Z,6.97
2018-09-02T17:48:20.945Z,5.87
2018-09-02T17:50:49.131Z,5.70
2018-09-02T17:53:17.315Z,6.08
2018-09-02T17:55:46.352Z,7.22
2018-09-02T17:58:14.536Z,5.33
2018-09-02T18:00:48.104Z,5.97
2018-09-02T18:03:16.292Z,6.97
2018-09-02T18:05:44.502Z,6.20
2018-09-02T18:08:12.697Z,5.22
2018-09-02T18:10:40.868Z,5.22
2018-09-02T18:13:09.047Z,6.92
2018-09-02T18:15:37.221Z,5.90
2018-09-02T18:18:05.423Z,6.50
2018-09-02T18:20:33.599Z,7.05
2018-09-02T18:23:01.785Z,6.60
2018-09-02T18:25:29.950Z,5.97
2018-09-02T18:28:01.355Z,6.65
2018-09-02T18:30:29.560Z,5.47
2018-09-02T18:32:57.744Z,5.08
2018-09-02T18:35:25.923Z,5.12
2018-09-02T18:37:54.131Z,5.67
2018-09-02T18:40:22.353Z,5.30
2018-09-02T18:42:50.746Z,5.22
2018-09-02T18:45:19.138Z,5.53
2018-09-02T18:47:47.960Z,4.85
2018-09-02T18:50:16.737Z,5.28
2018-09-02T18:52:44.900Z,4.83
2018-09-02T18:55:13.080Z,5.20
2018-09-02T18:57:41.255Z,6.25
2018-09-02T19:00:09.439Z,5.72
2018-09-02T19:02:37.714Z,7.35
2018-09-02T19:05:06.102Z,5.22
2018-09-02T19:07:34.294Z,4.83
2018-09-02T19:10:02.497Z,4.60
2018-09-02T19:12:30.684Z,4.70
2018-09-02T19:14:59.000Z,5.97
2018-09-02T19:17:27.028Z,5.12
2018-09-02T19:19:55.215Z,4.50
2018-09-02T19:22:23.387Z,5.05
2018-09-02T19:24:51.604Z,4.83
2018-09-02T19:27:19.760Z,4.87
2018-09-02T19:29:48.004Z,5.03
2018-09-02T19:32:16.135Z,4.58
2018-09-02T19:34:44.310Z,4.62
2018-09-02T19:37:12.498Z,4.80
2018-09-02T19:39:40.721Z,4.80
2018-09-02T19:42:08.876Z,6.42
2018-09-02T19:44:37.090Z,4.72
2018-09-02T19:47:05.272Z,4.28
2018-09-02T19:49:33.444Z,4.58
2018-09-02T19:52:01.602Z,5.25
2018-09-02T19:54:29.863Z,4.78
2018-09-02T19:56:58.196Z,4.47
2018-09-02T19:59:26.380Z,5.12
2018-09-02T20:01:54.572Z,5.17
2018-09-02T20:04:22.758Z,4.53
2018-09-02T20:06:50.943Z,5.33
2018-09-02T20:09:19.098Z,4.60
2018-09-02T20:11:47.271Z,5.67
2018-09-02T20:14:15.434Z,4.92
2018-09-02T20:16:43.620Z,5.53
2018-09-02T20:19:11.874Z,5.42
2018-09-02T20:21:39.964Z,5.10
2018-09-02T20:24:08.144Z,5.90
2018-09-02T20:26:36.806Z,5.72
2018-09-02T20:29:05.000Z,5.03
2018-09-02T20:31:33.287Z,5.58
2018-09-02T20:34:01.649Z,6.83
2018-09-02T20:36:29.828Z,5.37
2018-09-02T20:38:58.008Z,5.40
2018-09-02T20:41:26.188Z,4.60
2018-09-02T20:43:54.351Z,4.95
2018-09-02T20:46:22.537Z,5.53
2018-09-02T20:48:50.703Z,5.83
2018-09-02T20:51:18.904Z,6.87
2018-09-02T20:53:47.101Z,5.50
2018-09-02T20:56:15.287Z,5.83
2018-09-02T20:58:43.508Z,6.90
2018-09-02T21:01:11.804Z,5.47
2018-09-02T21:03:40.007Z,5.78
2018-09-02T21:06:08.185Z,6.83
2018-09-02T21:08:36.355Z,5.78
2018-09-02T21:11:04.559Z,5.85
2018-09-02T21:13:32.766Z,5.97
2018-09-02T21:16:00.951Z,5.15
2018-09-02T21:18:29.126Z,5.70
2018-09-02T21:20:57.311Z,6.08
2018-09-02T21:23:25.506Z,6.12
2018-09-02T21:25:53.683Z,5.97
2018-09-02T21:28:21.862Z,6.42
2018-09-02T21:30:50.034Z,7.12
2018-09-02T21:33:18.241Z,5.37
2018-09-02T21:35:46.417Z,6.05
2018-09-02T21:38:14.619Z,5.95
2018-09-02T21:40:42.784Z,6.45
2018-09-02T21:43:10.979Z,7.37
2018-09-02T21:45:39.128Z,6.17
2018-09-02T21:48:07.310Z,5.75
2018-09-02T21:50:35.518Z,6.20
2018-09-02T21:53:03.699Z,7.50
2018-09-02T21:55:31.890Z,6.42
2018-09-02T21:58:00.083Z,5.87
2018-09-02T22:00:28.255Z,6.90
2018-09-02T22:02:56.453Z,6.87
2018-09-02T22:05:24.617Z,6.47
2018-09-02T22:07:52.798Z,6.53
2018-09-02T22:10:20.995Z,6.28
2018-09-02T22:12:49.175Z,6.12
2018-09-02T22:15:17.348Z,5.80
2018-09-02T22:17:45.573Z,6.75
2018-09-02T22:20:13.786Z,7.55
2018-09-02T22:22:41.976Z,5.75
2018-09-02T22:25:10.607Z,7.20
2018-09-02T22:27:39.020Z,7.17
2018-09-02T22:30:07.979Z,7.53
2018-09-02T22:32:36.180Z,6.72
2018-09-02T22:35:04.393Z,6.58
2018-09-02T22:37:32.552Z,7.70
2018-09-02T22:40:00.760Z,6.00
2018-09-02T22:42:28.915Z,6.92
2018-09-02T22:44:57.114Z,7.20
2018-09-02T22:47:25.310Z,7.65
2018-09-02T22:49:53.488Z,7.65
2018-09-02T22:52:21.667Z,8.50
2018-09-02T22:54:49.849Z,6.97
2018-09-02T22:57:18.035Z,7.20
2018-09-02T22:59:46.200Z,7.53
2018-09-02T23:02:14.400Z,9.88
2018-09-02T23:04:42.584Z,9.05
2018-09-02T23:07:10.739Z,7.65
2018-09-02T23:09:38.918Z,8.40
2018-09-02T23:12:07.156Z,7.35
2018-09-02T23:14:35.335Z,7.97
2018-09-02T23:17:03.504Z,7.95
2018-09-02T23:19:31.756Z,7.97
2018-09-02T23:21:59.882Z,7.70
2018-09-02T23:24:28.052Z,8.93
2018-09-02T23:26:56.215Z,8.35
2018-09-02T23:29:24.396Z,8.05
2018-09-02T23:31:52.581Z,9.53
2018-09-02T23:34:20.770Z,8.30
2018-09-02T23:36:48.933Z,9.35
2018-09-02T23:39:17.111Z,8.00
2018-09-02T23:41:45.286Z,9.38
2018-09-02T23:44:13.444Z,7.47
2018-09-02T23:46:41.599Z,9.50
2018-09-02T23:49:09.753Z,9.30
2018-09-02T23:51:37.951Z,9.80
2018-09-02T23:54:06.115Z,10.20
2018-09-02T23:56:34.298Z,8.95
2018-09-02T23:59:02.460Z,9.85
